Pellston, MI (49769)

3:49 PM EDT on September 02, 2015 (GMT -0400)
Creekside, 4 Miles WSW Bliss | | Change Station
CLOSE
Current Station
Personal Weather Station
Location: Bliss Township, MI
Elevation: 708 ft
Nearby Weather Stations

Elev 708 ft 45.65 °N, 84.92 °W | Updated 13 seconds ago

Partly Cloudy
Partly Cloudy
71.8 °F
Feels Like 71.8 °F
N
5.0
Wind Variable Wind from WNW
Gusts 8.0 mph

Today
High -- | Low -- °F
--% Chance of Precip.
Yesterday
High -- | Low -- °F
Precip. -- in
7:01 AM 8:15 PM
Waning Gibbous, 78% visible
Pressure 29.97 in
Visibility 9.0 miles
Clouds Few 6000 ft
Dew Point 68 °F
Humidity 88%
Rainfall 0.00 in
Snow Depth Not available.
UV 7 out of 12
Pollen 10.20 out of 12
Air Quality Not available.
Flu Activity Not available.
METAR KPLN 021854Z AUTO 33007KT 9SM FEW060 29/23 A2998 RMK AO2 SLP148 T02890228
Pressure 29.97 in
Visibility 9.0 miles
Clouds Few 6000 ft
Dew Point 68 °F
Humidity 88%
Rainfall 0.00 in
Snow Depth Not available.
UV 7 out of 12
Pollen 10.20 out of 12
Air Quality Not available.
Flu Activity Not available.
METAR KPLN 021854Z AUTO 33007KT 9SM FEW060 29/23 A2998 RMK AO2 SLP148 T02890228
Nowcast | as of 3:00 PM EDT on September 2, 2015

At 4 PM...partly cloudy. Temperature 76. Northwest winds 7 mph. At 6 PM...partly cloudy. Temperature 77. West winds 6 mph. At 8 PM...partly cloudy. Temperature 73. Light winds. At 10 PM...partly cloudy. Temperature 70. Light winds.

×

10-Day Weather Forecast

×

Almanac

Astronomy

Sep. 02, 2015 Rise Set
Actual Time
Civil Twilight
Nautical Twilight
Astronomical Twilight
Moon
Length of Visible Light
Length of Day
Tomorrow will be .
, % of the Moon is Illuminated

Today's Extremes

State Highs State Lows

Community

WunderPhotos

Upload Photos

1,851,801 photos uploaded!

WunderBlogs® & News

Nearby

Air Quality

  Air Quality AQ Index Pollutant
Not available.

Snow Depth

Station Depth Elevation

Earthquake Activity

City Distance Mag. Time & Date
Minimum magnitude displayed is 2.5.

Coastal Water Temperatures

Place Temperature

Stations

Nearby Weather Stations

Station Location Temp. Windchill Dew Point Humidity Wind Precip. Elev Updated Type